Time;durP1;ratioP1;P1;durP2;ratioP2;P2;SDS_P1;SDS_P2;PMS_P1;PMS_P2;Temp;Humidity;BMP_temperature;BMP_pressure;BME280_temperature;BME280_humidity;BME280_pressure;Samples;Min_cycle;Max_cycle;Signal;HPM_P1;HPM_P2
2024/03/20 00:00:31;;;;;;;37.45;26.75;;;13.20;99.90;;;;;;5082423;28;20247;-81
2024/03/20 00:02:58;;;;;;;42.28;26.80;;;13.20;99.90;;;;;;5091405;28;20183;-83
2024/03/20 00:05:27;;;;;;;34.00;27.63;;;13.10;99.90;;;;;;5084478;28;20185;-84
2024/03/20 00:07:55;;;;;;;36.92;27.98;;;13.20;99.90;;;;;;5081932;28;20208;-83
2024/03/20 00:10:22;;;;;;;36.65;28.90;;;13.10;99.90;;;;;;5074673;28;20221;-83
2024/03/20 00:12:49;;;;;;;41.85;29.70;;;13.00;99.90;;;;;;5078562;28;20203;-83
2024/03/20 00:15:16;;;;;;;38.47;30.35;;;12.90;99.90;;;;;;5074107;28;20211;-82
2024/03/20 00:17:46;;;;;;;35.83;30.35;;;12.80;99.90;;;;;;5077164;28;20223;-82
2024/03/20 00:20:13;;;;;;;43.53;30.10;;;12.80;99.90;;;;;;5074389;28;20204;-82
2024/03/20 00:22:41;;;;;;;39.03;30.20;;;12.80;99.90;;;;;;5081621;28;20266;-83
2024/03/20 00:25:10;;;;;;;42.35;28.90;;;12.80;99.90;;;;;;5073989;28;20208;-84
2024/03/20 00:27:37;;;;;;;58.25;29.52;;;12.80;99.90;;;;;;5088240;28;20214;-81
2024/03/20 00:30:05;;;;;;;42.22;30.48;;;12.80;99.90;;;;;;5091393;28;20231;-83
2024/03/20 00:32:33;;;;;;;37.80;30.23;;;12.70;99.90;;;;;;5079848;28;20242;-82
2024/03/20 00:35:00;;;;;;;39.38;29.08;;;12.70;99.90;;;;;;5075783;28;20245;-82
2024/03/20 00:37:27;;;;;;;40.60;30.05;;;12.70;99.90;;;;;;5087390;28;20237;-84
2024/03/20 00:39:55;;;;;;;37.22;30.17;;;12.70;99.90;;;;;;5095570;28;20207;-83
2024/03/20 00:42:25;;;;;;;42.28;29.60;;;12.60;99.90;;;;;;5078995;28;20216;-83
2024/03/20 00:44:52;;;;;;;50.80;30.33;;;12.60;99.90;;;;;;5073011;28;20203;-83
2024/03/20 00:47:20;;;;;;;35.45;28.88;;;12.60;99.90;;;;;;5080201;28;20210;-85
2024/03/20 00:49:47;;;;;;;40.28;29.83;;;12.60;99.90;;;;;;5079343;28;20274;-82
2024/03/20 00:52:14;;;;;;;40.80;31.40;;;12.60;99.90;;;;;;5080417;28;20191;-82
2024/03/20 00:54:41;;;;;;;37.97;26.88;;;12.50;99.90;;;;;;5080539;28;20203;-84
2024/03/20 00:57:09;;;;;;;52.40;29.15;;;12.50;99.90;;;;;;5074955;28;20207;-83
2024/03/20 00:59:37;;;;;;;36.10;28.52;;;12.50;99.90;;;;;;5083106;28;20220;-84
2024/03/20 01:02:03;;;;;;;43.28;31.88;;;12.40;99.90;;;;;;5084878;28;20226;-82
2024/03/20 01:04:30;;;;;;;43.80;28.03;;;12.40;99.90;;;;;;5082470;28;20191;-83
2024/03/20 01:06:56;;;;;;;39.50;30.08;;;12.50;99.90;;;;;;5074095;28;20531;-83
2024/03/20 01:09:24;;;;;;;37.13;26.08;;;12.50;99.90;;;;;;5077907;28;20223;-83
2024/03/20 01:11:51;;;;;;;37.47;26.58;;;12.50;99.90;;;;;;5082814;28;20234;-82
2024/03/20 01:14:19;;;;;;;32.10;26.58;;;12.50;99.90;;;;;;5074278;28;20206;-83
2024/03/20 01:16:48;;;;;;;31.63;25.55;;;12.60;99.90;;;;;;5072791;28;20204;-83
2024/03/20 01:19:15;;;;;;;31.73;23.73;;;12.60;99.90;;;;;;5072883;28;20223;-82
2024/03/20 01:21:42;;;;;;;40.08;29.60;;;12.60;99.90;;;;;;5077446;28;20195;-82
2024/03/20 01:24:09;;;;;;;46.75;29.42;;;12.60;99.90;;;;;;5083087;28;20180;-83
2024/03/20 01:26:36;;;;;;;40.08;30.85;;;12.50;99.90;;;;;;5089734;28;20200;-84
2024/03/20 01:29:03;;;;;;;40.13;28.15;;;12.40;99.90;;;;;;5082328;28;20246;-84
2024/03/20 01:31:31;;;;;;;39.65;29.13;;;12.30;99.90;;;;;;5092595;28;20214;-84
2024/03/20 01:33:58;;;;;;;44.40;30.50;;;12.30;99.90;;;;;;5092751;28;20199;-85
2024/03/20 01:36:25;;;;;;;36.17;27.48;;;12.30;99.90;;;;;;5083937;28;20222;-83
2024/03/20 01:38:52;;;;;;;42.20;28.23;;;12.30;99.90;;;;;;5080650;28;20231;-83
2024/03/20 01:41:19;;;;;;;45.95;31.20;;;12.30;99.90;;;;;;5080313;28;20725;-82
2024/03/20 01:43:53;;;;;;;45.00;32.33;;;12.30;99.90;;;;;;5077297;28;20200;-83
2024/03/20 01:46:29;;;;;;;43.85;30.95;;;12.20;99.90;;;;;;5083356;28;20227;-83
2024/03/20 01:48:58;;;;;;;49.33;30.95;;;12.10;99.90;;;;;;5084673;28;20608;-85
2024/03/20 01:51:26;;;;;;;49.90;32.97;;;12.10;99.90;;;;;;5078504;28;20254;-83
2024/03/20 01:53:55;;;;;;;47.20;31.83;;;12.00;99.90;;;;;;5087092;28;20196;-84
2024/03/20 01:56:22;;;;;;;42.03;30.88;;;11.90;99.90;;;;;;5085234;28;20204;-82
2024/03/20 01:58:49;;;;;;;47.75;32.92;;;11.90;99.90;;;;;;5084268;28;20219;-84
2024/03/20 02:01:16;;;;;;;45.35;30.33;;;11.80;99.90;;;;;;5091644;28;20200;-82
2024/03/20 02:03:43;;;;;;;45.50;32.05;;;11.80;99.90;;;;;;5086840;28;20187;-82
2024/03/20 02:06:21;;;;;;;45.60;31.13;;;11.90;99.90;;;;;;5089477;28;20215;-83
2024/03/20 02:08:48;;;;;;;48.08;30.48;;;11.80;99.90;;;;;;5083503;28;20249;-82
2024/03/20 02:11:15;;;;;;;47.80;32.92;;;11.70;99.90;;;;;;5082645;28;20254;-82
2024/03/20 02:13:46;;;;;;;47.95;31.60;;;11.70;99.90;;;;;;5080371;28;20220;-83
2024/03/20 02:16:13;;;;;;;42.67;29.60;;;11.70;99.90;;;;;;5078847;28;20196;-82
2024/03/20 02:18:40;;;;;;;42.38;29.55;;;11.60;99.90;;;;;;5080023;28;20223;-83
2024/03/20 02:21:10;;;;;;;53.45;33.63;;;11.70;99.90;;;;;;5072689;28;20242;-82
2024/03/20 02:23:38;;;;;;;48.42;33.92;;;11.60;99.90;;;;;;5077676;28;20226;-83
2024/03/20 02:26:06;;;;;;;48.70;31.02;;;11.60;99.90;;;;;;5075751;28;20204;-84
2024/03/20 02:28:33;;;;;;;49.38;29.48;;;11.40;99.90;;;;;;5071136;28;20600;-83
2024/03/20 02:31:00;;;;;;;41.42;28.67;;;11.40;99.90;;;;;;5074048;28;20250;-82
2024/03/20 02:33:28;;;;;;;52.10;31.75;;;11.40;99.90;;;;;;5077460;28;20204;-82
2024/03/20 02:35:55;;;;;;;47.25;30.85;;;11.50;99.90;;;;;;5079683;28;20187;-82
2024/03/20 02:38:24;;;;;;;45.42;32.60;;;11.50;99.90;;;;;;5065355;28;20298;-82
2024/03/20 02:40:52;;;;;;;49.40;32.45;;;11.50;99.90;;;;;;5072314;28;20639;-83
2024/03/20 02:43:19;;;;;;;53.92;32.67;;;11.40;99.90;;;;;;5065714;28;20204;-82
2024/03/20 02:45:46;;;;;;;44.15;29.25;;;11.40;99.90;;;;;;5064070;28;20211;-83
2024/03/20 02:48:14;;;;;;;46.22;30.52;;;11.40;99.90;;;;;;5069574;28;20220;-83
2024/03/20 02:50:41;;;;;;;49.90;32.13;;;11.40;99.90;;;;;;5061313;28;20224;-84
2024/03/20 02:53:08;;;;;;;52.03;32.70;;;11.30;99.90;;;;;;5077028;28;20207;-83
2024/03/20 02:55:39;;;;;;;46.88;31.02;;;11.20;99.90;;;;;;5076468;28;20192;-83
2024/03/20 02:58:06;;;;;;;47.83;31.15;;;11.20;99.90;;;;;;5068413;28;20583;-81
2024/03/20 03:00:33;;;;;;;48.78;33.13;;;11.20;99.90;;;;;;5066014;28;20199;-82
2024/03/20 03:03:00;;;;;;;47.97;32.65;;;11.20;99.90;;;;;;5074610;28;20635;-82
2024/03/20 03:05:29;;;;;;;48.45;32.17;;;11.10;99.90;;;;;;5067036;28;20195;-81
2024/03/20 03:07:56;;;;;;;62.70;32.92;;;11.10;99.90;;;;;;5061572;28;20287;-82
2024/03/20 03:10:24;;;;;;;53.03;29.58;;;11.10;99.90;;;;;;5074044;28;20208;-82
2024/03/20 03:12:53;;;;;;;49.05;33.30;;;11.20;99.90;;;;;;5078339;28;20199;-82
2024/03/20 03:15:21;;;;;;;53.83;33.80;;;11.20;99.90;;;;;;5082073;28;20203;-82
2024/03/20 03:17:53;;;;;;;50.42;33.88;;;11.20;99.90;;;;;;5083346;28;20211;-83
2024/03/20 03:20:23;;;;;;;44.03;30.33;;;11.20;99.90;;;;;;5077100;28;20200;-82
2024/03/20 03:22:50;;;;;;;47.05;32.33;;;11.30;99.90;;;;;;5084108;28;20229;-82
2024/03/20 03:25:17;;;;;;;49.28;31.70;;;11.30;99.90;;;;;;5091844;28;20207;-83
2024/03/20 03:27:44;;;;;;;41.30;30.95;;;11.30;99.90;;;;;;5075003;28;20223;-83
2024/03/20 03:30:13;;;;;;;48.00;31.95;;;11.30;99.90;;;;;;5077667;28;20229;-82
2024/03/20 03:32:41;;;;;;;48.75;35.17;;;11.30;99.90;;;;;;5081822;28;20203;-83
2024/03/20 03:35:09;;;;;;;49.45;32.00;;;11.20;99.90;;;;;;5067117;28;20224;-83
2024/03/20 03:37:36;;;;;;;54.42;35.17;;;11.20;99.90;;;;;;5072482;28;20227;-83
2024/03/20 03:40:06;;;;;;;47.60;34.00;;;11.20;99.90;;;;;;5069338;28;20200;-84
2024/03/20 03:42:33;;;;;;;53.72;32.25;;;11.20;99.90;;;;;;5084133;28;20195;-83
2024/03/20 03:45:00;;;;;;;51.45;33.25;;;11.20;99.90;;;;;;5067106;28;20629;-83
2024/03/20 03:47:30;;;;;;;46.75;28.70;;;11.20;99.90;;;;;;5072118;28;20235;-82
2024/03/20 03:49:57;;;;;;;44.58;31.63;;;11.30;99.90;;;;;;5088555;28;20233;-82
2024/03/20 03:52:25;;;;;;;43.15;30.70;;;11.30;99.90;;;;;;5076418;28;20225;-83
2024/03/20 03:54:52;;;;;;;38.33;28.80;;;11.30;99.90;;;;;;5075056;28;20203;-82
2024/03/20 03:57:19;;;;;;;53.17;32.70;;;11.40;99.90;;;;;;5065726;28;20199;-83
2024/03/20 03:59:46;;;;;;;46.95;32.33;;;11.40;99.90;;;;;;5064303;28;20208;-82
2024/03/20 04:02:13;;;;;;;43.05;31.65;;;11.40;99.90;;;;;;5064864;28;20207;-83
2024/03/20 04:04:41;;;;;;;49.58;33.83;;;11.50;99.90;;;;;;5075192;28;20211;-83
2024/03/20 04:07:08;;;;;;;44.60;33.70;;;11.50;99.90;;;;;;5080916;28;20204;-84
2024/03/20 04:09:35;;;;;;;49.10;34.78;;;11.60;99.90;;;;;;5079769;28;20219;-83
2024/03/20 04:12:02;;;;;;;44.58;33.10;;;11.50;99.90;;;;;;5082916;28;20223;-83
2024/03/20 04:14:29;;;;;;;47.15;34.60;;;11.50;99.90;;;;;;5073521;28;20203;-84
2024/03/20 04:16:56;;;;;;;44.72;32.45;;;11.30;99.90;;;;;;5072205;28;20670;-82
2024/03/20 04:19:22;;;;;;;42.75;32.30;;;11.60;99.90;;;;;;5080997;28;20220;-82
2024/03/20 04:21:52;;;;;;;46.60;33.38;;;11.60;99.90;;;;;;5090439;28;20187;-82
2024/03/20 04:24:19;;;;;;;47.22;32.40;;;11.60;99.90;;;;;;5088148;28;20252;-83
2024/03/20 04:26:46;;;;;;;39.10;29.70;;;11.60;99.90;;;;;;5076771;28;20192;-83
2024/03/20 04:29:13;;;;;;;40.47;31.48;;;11.70;99.90;;;;;;5076109;28;20208;-82
2024/03/20 04:31:40;;;;;;;37.53;30.02;;;11.80;99.90;;;;;;5086035;28;20207;-83
2024/03/20 04:34:07;;;;;;;47.83;30.80;;;11.80;99.90;;;;;;5086132;28;20200;-82
2024/03/20 04:36:34;;;;;;;43.78;31.08;;;11.80;99.90;;;;;;5090690;28;20207;-83
2024/03/20 04:39:02;;;;;;;51.40;32.70;;;11.90;99.90;;;;;;5076848;28;20220;-83
2024/03/20 04:41:29;;;;;;;51.20;35.20;;;11.80;99.90;;;;;;5092427;28;20225;-82
2024/03/20 04:43:56;;;;;;;44.10;33.72;;;11.70;99.90;;;;;;5086110;28;20281;-82
2024/03/20 04:46:23;;;;;;;45.13;34.40;;;11.60;99.90;;;;;;5088506;28;20194;-82
2024/03/20 04:48:50;;;;;;;42.78;31.77;;;11.50;99.90;;;;;;5086068;28;20215;-83
2024/03/20 04:51:17;;;;;;;47.58;33.58;;;11.40;99.90;;;;;;5087881;28;20203;-83
2024/03/20 04:53:44;;;;;;;42.78;30.25;;;11.30;99.90;;;;;;5082145;28;20214;-82
2024/03/20 04:56:12;;;;;;;37.15;28.45;;;11.30;99.90;;;;;;5083002;28;20203;-83
2024/03/20 04:58:39;;;;;;;36.90;27.10;;;11.40;99.90;;;;;;5085789;28;20219;-83
2024/03/20 05:01:06;;;;;;;38.03;30.80;;;11.50;99.90;;;;;;5080409;28;20213;-82
2024/03/20 05:03:33;;;;;;;50.88;33.75;;;11.60;99.90;;;;;;5079851;28;20222;-83
2024/03/20 05:06:00;;;;;;;39.25;29.63;;;11.60;99.90;;;;;;5073587;28;20188;-83
2024/03/20 05:08:27;;;;;;;44.97;32.40;;;11.60;99.90;;;;;;5075599;28;20210;-82
2024/03/20 05:10:54;;;;;;;49.42;33.97;;;11.50;99.90;;;;;;5084008;28;20190;-82
2024/03/20 05:13:22;;;;;;;46.28;33.03;;;11.50;99.90;;;;;;5087769;28;20199;-83
2024/03/20 05:15:49;;;;;;;50.35;37.83;;;11.50;99.90;;;;;;5081471;28;20204;-83
2024/03/20 05:18:16;;;;;;;49.15;36.50;;;11.50;99.90;;;;;;5083675;28;20230;-83
2024/03/20 05:20:43;;;;;;;46.28;36.30;;;11.50;99.90;;;;;;5089672;28;20195;-83
2024/03/20 05:23:10;;;;;;;43.95;33.25;;;11.50;99.90;;;;;;5084311;28;20199;-82
2024/03/20 05:25:38;;;;;;;43.20;33.55;;;11.50;99.90;;;;;;5084247;28;20477;-83
2024/03/20 05:28:05;;;;;;;49.35;34.85;;;11.50;99.90;;;;;;5088399;28;20286;-82
2024/03/20 05:30:33;;;;;;;42.88;33.85;;;11.50;99.90;;;;;;5081397;28;20251;-82
2024/03/20 05:32:59;;;;;;;48.03;34.55;;;11.60;99.90;;;;;;5075739;28;20224;-83
2024/03/20 05:35:27;;;;;;;38.88;29.50;;;11.60;99.90;;;;;;5084737;28;20191;-83
2024/03/20 05:37:52;;;;;;;48.42;35.35;;;11.60;99.90;;;;;;5081346;28;20228;-84
2024/03/20 05:40:19;;;;;;;42.60;34.70;;;11.60;99.90;;;;;;5078831;28;20188;-83
2024/03/20 05:42:45;;;;;;;38.83;31.42;;;11.70;99.90;;;;;;5089973;28;20445;-83
2024/03/20 05:45:14;;;;;;;44.13;32.57;;;11.80;99.90;;;;;;5086126;28;20203;-85
2024/03/20 05:47:41;;;;;;;49.75;35.83;;;11.80;99.90;;;;;;5082462;28;20541;-84
2024/03/20 05:50:09;;;;;;;43.22;28.90;;;11.90;99.90;;;;;;5075105;28;20226;-85
2024/03/20 05:52:37;;;;;;;42.40;29.77;;;12.00;99.90;;;;;;5072661;28;20246;-85
2024/03/20 05:55:05;;;;;;;36.00;28.20;;;12.30;99.90;;;;;;5082809;28;20622;-84
2024/03/20 05:57:31;;;;;;;36.35;29.95;;;12.50;99.90;;;;;;5081163;28;20207;-84
2024/03/20 06:00:17;;;;;;;36.90;29.83;;;12.60;99.90;;;;;;5080625;28;20595;-83
2024/03/20 06:02:44;;;;;;;40.35;31.45;;;12.70;99.90;;;;;;5086588;28;20238;-82
2024/03/20 06:05:12;;;;;;;41.38;32.45;;;12.60;99.90;;;;;;5069630;28;20224;-82
2024/03/20 06:07:38;;;;;;;46.97;32.50;;;12.50;99.90;;;;;;5082389;28;20220;-83
2024/03/20 06:10:08;;;;;;;38.08;29.90;;;12.40;99.90;;;;;;5077783;28;20218;-83
2024/03/20 06:12:34;;;;;;;43.58;32.60;;;12.40;99.90;;;;;;5068227;28;20749;-82
2024/03/20 06:15:02;;;;;;;45.00;32.05;;;12.40;99.90;;;;;;5084972;28;20273;-82
2024/03/20 06:17:28;;;;;;;43.85;32.53;;;12.30;99.90;;;;;;5072963;28;20250;-84
2024/03/20 06:19:57;;;;;;;35.67;27.92;;;12.20;99.90;;;;;;5079639;28;20200;-83
2024/03/20 06:22:23;;;;;;;44.33;34.97;;;12.10;99.90;;;;;;5074864;28;20196;-84
2024/03/20 06:24:50;;;;;;;37.15;30.50;;;12.30;99.90;;;;;;5066458;28;20207;-85
2024/03/20 06:27:17;;;;;;;40.67;29.27;;;12.30;99.90;;;;;;5072580;28;20200;-87
2024/03/20 06:29:45;;;;;;;41.35;31.25;;;12.50;99.90;;;;;;5078037;28;20260;-84
2024/03/20 06:32:11;;;;;;;40.17;27.77;;;12.60;99.90;;;;;;5086417;28;20720;-82
2024/03/20 06:34:38;;;;;;;39.65;30.33;;;12.70;99.90;;;;;;5079303;28;20190;-86
2024/03/20 06:37:07;;;;;;;38.50;30.35;;;12.90;99.90;;;;;;5083458;28;20191;-85
2024/03/20 06:39:34;;;;;;;32.05;27.45;;;13.00;99.90;;;;;;5083815;28;20219;-84
2024/03/20 06:42:00;;;;;;;40.33;30.98;;;13.10;99.90;;;;;;5076136;28;20200;-83
2024/03/20 06:44:27;;;;;;;40.40;32.70;;;13.10;99.90;;;;;;5071971;28;20219;-83
2024/03/20 06:46:53;;;;;;;40.92;27.52;;;13.00;99.90;;;;;;5070415;28;21014;-83
2024/03/20 06:49:25;;;;;;;40.50;30.37;;;13.10;99.90;;;;;;5077805;28;20215;-84
2024/03/20 06:51:52;;;;;;;44.90;30.63;;;13.20;99.90;;;;;;5083826;28;20466;-83
2024/03/20 06:54:24;;;;;;;39.95;28.80;;;13.10;99.90;;;;;;5079887;28;20204;-85
2024/03/20 06:56:52;;;;;;;31.25;26.05;;;13.10;99.90;;;;;;5076658;28;20214;-82
2024/03/20 06:59:21;;;;;;;39.30;30.88;;;13.20;99.90;;;;;;5085886;28;20215;-84
2024/03/20 07:01:47;;;;;;;42.15;32.30;;;13.00;99.90;;;;;;5085018;28;20203;-82
2024/03/20 07:04:18;;;;;;;40.20;28.17;;;13.10;99.90;;;;;;5082193;28;20575;-85
2024/03/20 07:06:43;;;;;;;34.47;27.15;;;13.20;99.90;;;;;;5081112;28;20199;-84
2024/03/20 07:09:10;;;;;;;33.37;28.20;;;13.30;99.90;;;;;;5079171;28;20280;-83
2024/03/20 07:11:38;;;;;;;40.63;28.20;;;13.40;99.90;;;;;;5080931;28;20485;-84
2024/03/20 07:14:05;;;;;;;39.50;29.55;;;13.50;99.90;;;;;;5083130;28;20223;-85
2024/03/20 07:16:31;;;;;;;39.90;29.90;;;13.50;99.90;;;;;;5082728;28;20263;-84
2024/03/20 07:18:58;;;;;;;42.30;29.63;;;13.40;99.90;;;;;;5084840;28;20282;-84
2024/03/20 07:21:25;;;;;;;38.92;29.65;;;13.30;99.90;;;;;;5087548;28;20462;-83
2024/03/20 07:23:52;;;;;;;42.20;32.60;;;13.40;99.90;;;;;;5081479;28;20266;-84
2024/03/20 07:26:18;;;;;;;41.25;32.78;;;13.50;99.90;;;;;;5068199;28;20850;-84
2024/03/20 07:28:46;;;;;;;36.78;28.05;;;13.50;99.90;;;;;;5069953;28;20295;-83
2024/03/20 07:31:12;;;;;;;39.30;30.10;;;13.50;99.90;;;;;;5072800;28;20200;-86
2024/03/20 07:33:40;;;;;;;36.90;29.17;;;13.60;99.90;;;;;;5073529;28;20649;-83
2024/03/20 07:36:06;;;;;;;33.13;26.60;;;13.70;99.90;;;;;;5072149;28;20443;-85
2024/03/20 07:38:33;;;;;;;35.47;26.85;;;13.90;99.90;;;;;;5074398;28;20235;-84
2024/03/20 07:41:03;;;;;;;34.65;28.88;;;14.00;99.90;;;;;;5077334;28;20203;-84
2024/03/20 07:46:13;;;;;;;36.15;29.17;;;14.00;99.90;;;;;;5087682;28;20191;-84
2024/03/20 07:48:39;;;;;;;34.70;26.98;;;14.10;99.90;;;;;;5086452;28;20224;-82
2024/03/20 07:51:07;;;;;;;33.95;23.98;;;14.40;99.90;;;;;;5086383;28;20188;-83
2024/03/20 07:53:33;;;;;;;33.30;25.87;;;14.70;99.90;;;;;;5083573;28;20208;-84
2024/03/20 07:56:00;;;;;;;34.17;26.30;;;15.00;99.90;;;;;;5085613;28;20429;-83
2024/03/20 07:58:26;;;;;;;32.73;25.13;;;15.30;99.90;;;;;;5086707;28;20481;-85
2024/03/20 08:00:53;;;;;;;33.00;24.90;;;15.60;99.90;;;;;;5086557;28;20466;-85
2024/03/20 08:03:21;;;;;;;32.40;26.73;;;15.90;99.90;;;;;;5078137;28;20475;-85
2024/03/20 08:05:48;;;;;;;38.77;26.47;;;16.10;99.90;;;;;;5084310;28;20482;-86
2024/03/20 08:08:14;;;;;;;30.63;25.23;;;15.90;99.90;;;;;;5088350;28;20459;-85
2024/03/20 08:10:41;;;;;;;29.43;24.33;;;15.80;99.90;;;;;;5076794;28;20453;-87
2024/03/20 08:13:09;;;;;;;30.30;24.20;;;15.90;99.90;;;;;;5086483;28;20485;-86
2024/03/20 08:15:39;;;;;;;30.00;24.20;;;16.00;99.90;;;;;;5082473;28;20455;-83
2024/03/20 08:18:05;;;;;;;31.30;25.60;;;15.90;99.90;;;;;;5075903;28;20481;-85
2024/03/20 08:20:34;;;;;;;39.63;26.93;;;15.90;99.90;;;;;;5076877;28;20681;-85
2024/03/20 08:23:01;;;;;;;28.73;22.90;;;15.90;99.90;;;;;;5082415;28;20900;-85
2024/03/20 08:25:28;;;;;;;36.10;25.50;;;15.70;99.90;;;;;;5071469;28;20446;-86
2024/03/20 08:27:55;;;;;;;30.13;23.00;;;15.60;99.90;;;;;;5068597;28;20449;-86
2024/03/20 08:30:22;;;;;;;26.77;21.50;;;15.60;99.90;;;;;;5070772;28;20442;-85
2024/03/20 08:32:48;;;;;;;23.07;15.37;;;15.70;99.90;;;;;;5069371;28;20226;-86
2024/03/20 08:35:17;;;;;;;23.37;16.97;;;15.60;99.90;;;;;;5079746;28;20473;-85
2024/03/20 08:37:45;;;;;;;19.00;13.83;;;15.80;99.90;;;;;;5071143;28;20464;-84
2024/03/20 08:40:13;;;;;;;24.90;15.30;;;16.00;99.90;;;;;;5078721;28;20463;-84
2024/03/20 08:42:39;;;;;;;26.27;21.47;;;16.00;99.90;;;;;;5080986;28;20467;-85
2024/03/20 08:45:08;;;;;;;30.80;20.70;;;16.30;99.90;;;;;;5079855;28;20443;-85
2024/03/20 08:47:34;;;;;;;25.93;19.20;;;16.40;99.90;;;;;;5078608;28;20509;-86
2024/03/20 08:50:02;;;;;;;25.87;16.60;;;16.70;99.90;;;;;;5083501;28;20958;-87
2024/03/20 08:52:28;;;;;;;22.90;18.60;;;17.30;99.90;;;;;;5077585;28;20485;-85
2024/03/20 08:54:58;;;;;;;21.90;17.63;;;18.00;99.90;;;;;;5073833;28;20438;-86
2024/03/20 08:57:24;;;;;;;20.20;17.20;;;18.60;99.90;;;;;;5067821;28;20547;-85
2024/03/20 08:59:51;;;;;;;22.83;17.90;;;19.70;99.90;;;;;;5073740;28;20448;-84
2024/03/20 09:02:17;;;;;;;21.60;15.50;;;20.60;99.90;;;;;;5075029;28;20450;-84
2024/03/20 09:04:44;;;;;;;21.30;14.13;;;21.20;99.80;;;;;;5074339;28;20446;-86
2024/03/20 09:07:10;;;;;;;18.30;15.03;;;21.50;97.60;;;;;;5071746;28;20478;-85
2024/03/20 09:09:37;;;;;;;17.83;12.77;;;21.10;97.20;;;;;;5079431;28;21154;-85
2024/03/20 09:12:06;;;;;;;18.50;13.40;;;21.10;97.30;;;;;;5070137;28;20474;-86
2024/03/20 09:14:35;;;;;;;16.63;11.27;;;20.90;97.10;;;;;;5083871;28;20454;-86
2024/03/20 09:17:01;;;;;;;14.97;10.50;;;20.80;96.30;;;;;;5068681;28;20444;-85
2024/03/20 09:19:28;;;;;;;19.03;10.80;;;21.00;96.70;;;;;;5072565;28;20470;-85
2024/03/20 09:21:54;;;;;;;13.20;9.50;;;21.20;96.30;;;;;;5077156;28;20442;-86
2024/03/20 09:24:23;;;;;;;16.63;10.60;;;20.90;96.00;;;;;;5076458;28;20448;-84
2024/03/20 09:26:50;;;;;;;22.80;11.30;;;20.50;96.50;;;;;;5068783;28;20447;-85
2024/03/20 09:29:18;;;;;;;18.33;10.50;;;20.20;96.80;;;;;;5084373;28;20448;-85
2024/03/20 09:31:44;;;;;;;16.00;8.87;;;20.10;96.90;;;;;;5086414;28;20564;-85
2024/03/20 09:34:11;;;;;;;15.40;9.03;;;20.10;96.90;;;;;;5095616;28;20443;-83
2024/03/20 09:36:38;;;;;;;16.13;8.40;;;20.10;96.70;;;;;;5085357;28;20464;-84
2024/03/20 09:39:05;;;;;;;15.97;7.70;;;19.60;96.50;;;;;;5080897;28;20462;-84
2024/03/20 09:41:33;;;;;;;10.97;5.93;;;19.50;97.20;;;;;;5086137;28;20447;-85
2024/03/20 09:44:01;;;;;;;13.00;6.77;;;19.30;97.70;;;;;;5086398;28;20459;-85
2024/03/20 09:46:30;;;;;;;12.50;6.87;;;19.30;97.70;;;;;;5086218;28;20945;-85
2024/03/20 09:48:57;;;;;;;13.40;6.87;;;19.60;97.70;;;;;;5076458;28;20461;-83
2024/03/20 09:51:24;;;;;;;14.23;7.53;;;19.50;96.80;;;;;;5075325;28;20466;-85
2024/03/20 09:53:52;;;;;;;13.40;6.93;;;19.90;97.10;;;;;;5087787;28;20523;-84
2024/03/20 09:56:21;;;;;;;8.40;6.03;;;20.30;96.80;;;;;;5085127;28;20443;-85
2024/03/20 09:58:49;;;;;;;12.17;6.13;;;20.40;96.20;;;;;;5086156;28;20461;-85
2024/03/20 10:01:20;;;;;;;10.80;5.97;;;20.50;96.00;;;;;;5082360;28;20463;-86
2024/03/20 10:03:53;;;;;;;10.23;6.90;;;20.60;95.70;;;;;;5081251;28;20446;-83
2024/03/20 10:06:20;;;;;;;9.73;6.67;;;20.50;95.60;;;;;;5083931;28;20495;-85
2024/03/20 10:08:48;;;;;;;10.10;7.53;;;20.30;95.80;;;;;;5088608;28;20510;-84
2024/03/20 10:11:14;;;;;;;10.60;7.63;;;20.10;96.00;;;;;;5084119;28;20467;-82
2024/03/20 10:13:42;;;;;;;9.40;6.27;;;20.40;96.20;;;;;;5081152;28;20507;-83
2024/03/20 10:16:12;;;;;;;11.43;7.10;;;20.30;96.00;;;;;;5082488;28;20435;-84
2024/03/20 10:18:39;;;;;;;9.17;6.30;;;20.40;96.00;;;;;;5080739;28;20531;-83
2024/03/20 10:21:07;;;;;;;12.40;7.43;;;20.10;96.00;;;;;;5079528;28;20431;-83
2024/03/20 10:23:40;;;;;;;14.97;8.63;;;19.90;96.10;;;;;;5091795;28;20450;-83
2024/03/20 10:26:06;;;;;;;12.03;7.20;;;19.30;96.80;;;;;;5077680;28;20440;-84
2024/03/20 10:28:35;;;;;;;9.20;7.10;;;19.10;97.40;;;;;;5074719;28;20478;-83
2024/03/20 10:31:10;;;;;;;15.10;10.00;;;19.10;97.70;;;;;;5099767;22;20724;-73
2024/03/20 10:33:38;;;;;;;16.40;8.30;;;19.10;97.80;;;;;;5002201;28;20484;-73
2024/03/20 10:36:09;;;;;;;11.80;8.20;;;19.10;97.70;;;;;;5007850;28;20469;-73
2024/03/20 10:38:37;;;;;;;10.97;7.80;;;19.20;97.90;;;;;;5006551;28;20444;-75
2024/03/20 10:41:05;;;;;;;11.23;8.30;;;19.40;98.10;;;;;;5005988;28;20453;-71
2024/03/20 10:43:32;;;;;;;12.30;9.30;;;19.50;98.10;;;;;;5015576;28;20452;-72
2024/03/20 10:46:00;;;;;;;13.90;8.63;;;19.60;97.70;;;;;;5009420;28;20474;-72
2024/03/20 10:48:27;;;;;;;14.33;9.07;;;19.70;97.80;;;;;;5012479;28;20451;-71
2024/03/20 10:50:54;;;;;;;11.23;7.73;;;19.70;97.70;;;;;;5018903;28;20434;-72
2024/03/20 10:53:27;;;;;;;19.97;9.37;;;19.60;97.50;;;;;;5023796;28;20515;-72
2024/03/20 10:55:54;;;;;;;14.30;10.27;;;19.40;97.60;;;;;;5036379;28;20457;-72
2024/03/20 10:58:24;;;;;;;14.07;7.90;;;19.30;97.90;;;;;;5020342;28;20973;-71
2024/03/20 11:00:52;;;;;;;13.13;8.57;;;19.00;98.10;;;;;;5021281;28;20973;-73
2024/03/20 11:03:40;;;;;;;12.27;8.67;;;19.10;98.50;;;;;;5008708;28;20523;-73
2024/03/20 11:06:38;;;;;;;7.80;6.40;;;19.20;98.30;;;;;;5005069;28;20496;-72
2024/03/20 11:09:22;;;;;;;10.03;7.33;;;19.50;98.00;;;;;;5010454;28;20531;-70
2024/03/20 11:11:48;;;;;;;9.43;6.73;;;19.60;97.20;;;;;;5016242;28;20450;-71
2024/03/20 11:14:25;;;;;;;9.97;7.30;;;19.40;97.60;;;;;;5012262;28;20526;-73
2024/03/20 11:16:52;;;;;;;12.27;6.17;;;19.30;97.80;;;;;;5006794;28;20551;-70
2024/03/20 11:19:20;;;;;;;14.40;5.80;;;19.40;97.50;;;;;;5011963;28;20452;-71
2024/03/20 11:21:48;;;;;;;11.80;6.20;;;19.70;97.30;;;;;;5010763;28;20447;-70
2024/03/20 11:24:16;;;;;;;16.60;6.43;;;19.90;97.10;;;;;;5014127;28;20523;-74
2024/03/20 11:26:42;;;;;;;10.37;6.47;;;20.10;97.00;;;;;;5010500;28;20479;-75
2024/03/20 11:29:12;;;;;;;9.63;6.87;;;20.00;96.50;;;;;;5009829;28;20941;-73
2024/03/20 11:31:40;;;;;;;8.97;5.77;;;20.20;96.40;;;;;;5014566;28;20492;-73
2024/03/20 11:34:06;;;;;;;12.10;6.80;;;19.90;96.30;;;;;;5011699;28;20560;-74
2024/03/20 11:36:34;;;;;;;10.43;6.67;;;20.00;96.80;;;;;;5009822;28;20453;-71
2024/03/20 11:39:06;;;;;;;12.27;6.57;;;20.10;96.50;;;;;;5018694;28;20440;-71
2024/03/20 11:41:35;;;;;;;11.53;6.67;;;20.20;96.40;;;;;;5018226;28;20456;-70
2024/03/20 11:44:01;;;;;;;17.17;6.80;;;20.10;96.50;;;;;;5008922;28;20898;-74
2024/03/20 11:46:28;;;;;;;10.90;6.50;;;19.90;96.50;;;;;;5006407;28;20544;-71
2024/03/20 11:48:55;;;;;;;12.47;7.17;;;19.60;96.60;;;;;;5011577;28;21471;-72
2024/03/20 11:51:25;;;;;;;12.00;6.80;;;19.50;97.10;;;;;;5010659;28;20812;-74
2024/03/20 11:53:52;;;;;;;7.80;6.07;;;19.50;97.10;;;;;;5013474;28;20480;-75
2024/03/20 11:56:19;;;;;;;11.80;6.10;;;19.70;97.20;;;;;;5013503;28;20500;-74
2024/03/20 11:58:49;;;;;;;9.93;6.90;;;19.90;96.90;;;;;;5012087;28;20449;-72
2024/03/20 12:01:16;;;;;;;11.73;6.53;;;20.10;96.80;;;;;;5012195;28;20928;-73
2024/03/20 12:03:43;;;;;;;7.47;5.80;;;20.10;96.20;;;;;;5018824;28;20448;-73
2024/03/20 12:06:11;;;;;;;9.87;6.50;;;20.20;96.50;;;;;;5011928;28;20817;-72
2024/03/20 12:08:37;;;;;;;8.13;6.50;;;20.00;96.30;;;;;;5019741;28;20484;-72
2024/03/20 12:11:15;;;;;;;9.90;6.70;;;20.00;96.60;;;;;;5012659;28;20447;-73
2024/03/20 12:13:41;;;;;;;9.10;6.90;;;20.20;96.50;;;;;;5013446;28;20551;-71
2024/03/20 12:16:10;;;;;;;10.40;7.30;;;20.40;96.40;;;;;;5011622;28;20465;-71
2024/03/20 12:18:36;;;;;;;11.50;6.50;;;20.40;95.90;;;;;;5011405;28;20449;-73
2024/03/20 12:21:04;;;;;;;7.67;6.37;;;20.30;96.10;;;;;;5013188;28;20433;-72
2024/03/20 12:23:32;;;;;;;9.80;6.27;;;20.10;96.30;;;;;;5006700;28;20560;-73
2024/03/20 12:25:59;;;;;;;7.93;7.03;;;20.00;96.80;;;;;;5015787;28;20497;-70
2024/03/20 12:28:26;;;;;;;11.37;7.53;;;19.90;96.90;;;;;;5021364;28;20469;-72
2024/03/20 12:30:53;;;;;;;7.50;6.50;;;19.80;97.00;;;;;;5022471;28;20444;-74
2024/03/20 12:33:20;;;;;;;11.03;7.70;;;19.90;96.90;;;;;;5015193;28;20488;-71
2024/03/20 12:35:48;;;;;;;11.63;6.63;;;19.80;97.10;;;;;;5016756;28;20553;-73